Craftsbury, Vermont
Current Conditions -  °F | °C
As of 3:54 AM on Sunday 26 Oct 2014 (Local Time) from KMVL Reporting Station
Few Clouds Few Clouds  
Wind Chill: 44°   Ceiling: Unl
Heat Index: 44°   Visibility: 10mi
Dew Point: 41°   Wind: 0mph
Humidity: 89%   Direction: NA
Pressure: 29.43"   Gusts: NA
Location:  44.64°N, 72.37°W
Report Text: KMVL 260754Z AUTO 00000KT 10SM FEW038 FEW120 07/05 A2943 RMK AO2 RAE0658 SLP967 P0000 T00670050
Loading
Personal Weather Stations






























Interactive Weather Map
Tropical Storm Tracking
New forecast layout! Learn more

10-Day Weather Forecast

Advertisements
Track Severe Weather on mobile